createdAt,value
2022-12-01T00:03:16.839Z,100
2022-12-01T00:23:17.492Z,100
2022-12-01T00:33:17.649Z,100
2022-12-01T00:43:18.156Z,100
2022-12-01T00:53:18.613Z,100
2022-12-01T01:03:18.792Z,100
2022-12-01T01:13:19.342Z,100
2022-12-01T01:23:19.788Z,100
2022-12-01T01:33:19.893Z,100
2022-12-01T01:43:20.760Z,100
2022-12-01T01:53:21.178Z,100
2022-12-01T02:03:21.513Z,100
2022-12-01T02:13:22.214Z,100
2022-12-01T02:23:23.149Z,100
2022-12-01T02:33:23.278Z,100
2022-12-01T02:43:23.989Z,100
2022-12-01T02:53:24.468Z,100
2022-12-01T03:03:25.246Z,100
2022-12-01T03:23:26.229Z,100
2022-12-01T03:33:26.489Z,100
2022-12-01T03:43:26.724Z,100
2022-12-01T03:53:27.555Z,100
2022-12-01T04:03:28.204Z,100
2022-12-01T04:13:28.515Z,100
2022-12-01T04:23:29.497Z,100
2022-12-01T04:33:30.464Z,100
2022-12-01T04:43:30.655Z,100
2022-12-01T04:53:31.108Z,100
2022-12-01T05:03:32.095Z,100
2022-12-01T05:13:33.161Z,100
2022-12-01T05:23:33.810Z,100
2022-12-01T05:33:34.594Z,100
2022-12-01T05:43:35.573Z,100
2022-12-01T05:53:36.028Z,100
2022-12-01T05:56:14.410Z,100
2022-12-01T06:03:44.813Z,100
2022-12-01T06:13:45.746Z,100
2022-12-01T06:23:46.391Z,100
2022-12-01T07:03:48.642Z,100
2022-12-01T07:13:48.960Z,100
2022-12-01T07:23:49.372Z,100
2022-12-01T07:43:50.869Z,100
2022-12-01T08:33:53.341Z,100
2022-12-01T08:53:54.572Z,100
2022-12-01T10:14:00.602Z,98
2022-12-01T14:04:14.799Z,92
2022-12-01T14:14:17.815Z,92
2022-12-01T14:34:19.036Z,91
2022-12-01T14:54:17.870Z,92
2022-12-01T15:14:19.610Z,93
2022-12-01T15:34:20.934Z,93
2022-12-01T15:54:22.031Z,92
2022-12-01T16:14:23.094Z,91
2022-12-01T16:24:24.110Z,91
2022-12-01T16:34:44.454Z,92
2022-12-01T16:44:28.345Z,92
2022-12-01T17:04:26.200Z,91
2022-12-01T17:14:26.790Z,90
2022-12-01T17:24:26.918Z,90
2022-12-01T17:34:27.360Z,90
2022-12-01T17:44:27.901Z,90
2022-12-01T17:54:28.130Z,91
2022-12-01T18:04:28.685Z,91
2022-12-01T18:14:28.846Z,92
2022-12-01T18:24:29.129Z,92
2022-12-01T18:34:29.461Z,91
2022-12-01T18:44:30.226Z,91
2022-12-01T18:54:30.551Z,91
2022-12-01T19:04:30.652Z,90
2022-12-01T19:14:31.137Z,90
2022-12-01T19:24:32.011Z,90
2022-12-01T19:34:32.426Z,89
2022-12-01T19:44:33.296Z,89
2022-12-01T19:54:33.853Z,88
2022-12-01T20:04:34.660Z,88
2022-12-01T20:14:35.724Z,88
2022-12-01T20:24:35.832Z,88
2022-12-01T20:34:36.291Z,89
2022-12-01T20:44:36.557Z,89
2022-12-01T20:54:37.041Z,90
2022-12-01T21:04:37.774Z,90
2022-12-01T21:14:37.896Z,90
2022-12-01T21:24:43.500Z,90
2022-12-01T21:34:38.562Z,90
2022-12-01T21:44:38.922Z,90
2022-12-01T21:54:39.911Z,91
2022-12-01T22:04:40.967Z,91
2022-12-01T22:14:41.318Z,91
2022-12-01T22:24:41.646Z,92
2022-12-01T22:34:42.168Z,92
2022-12-01T22:44:42.983Z,92
2022-12-01T22:54:43.989Z,94
2022-12-01T23:04:44.707Z,94
2022-12-01T23:14:45.500Z,93
2022-12-01T23:34:46.444Z,92
2022-12-01T23:44:46.965Z,92
2022-12-01T23:54:47.159Z,92
